sensor_id;sensor_type;location;lat;lon;timestamp;P1;durP1;ratioP1;P2;durP2;ratioP2
70715;SDS011;59053;50.832;12.882;2023-06-10T00:01:21;23.07;;;15.00;;
70715;SDS011;59053;50.832;12.882;2023-06-10T00:03:49;22.73;;;14.02;;
70715;SDS011;59053;50.832;12.882;2023-06-10T00:06:15;23.40;;;14.65;;
70715;SDS011;59053;50.832;12.882;2023-06-10T00:08:40;21.40;;;13.97;;
70715;SDS011;59053;50.832;12.882;2023-06-10T00:11:06;22.63;;;14.02;;
70715;SDS011;59053;50.832;12.882;2023-06-10T00:13:31;23.90;;;14.40;;
70715;SDS011;59053;50.832;12.882;2023-06-10T00:15:56;20.50;;;13.77;;
70715;SDS011;59053;50.832;12.882;2023-06-10T00:18:22;22.27;;;13.80;;
70715;SDS011;59053;50.832;12.882;2023-06-10T00:20:47;21.80;;;13.37;;
70715;SDS011;59053;50.832;12.882;2023-06-10T00:23:14;23.15;;;14.23;;
70715;SDS011;59053;50.832;12.882;2023-06-10T00:25:39;21.73;;;13.55;;
70715;SDS011;59053;50.832;12.882;2023-06-10T00:28:05;21.07;;;13.70;;
70715;SDS011;59053;50.832;12.882;2023-06-10T00:30:30;21.77;;;14.57;;
70715;SDS011;59053;50.832;12.882;2023-06-10T00:32:55;21.43;;;13.70;;
70715;SDS011;59053;50.832;12.882;2023-06-10T00:35:21;23.33;;;14.37;;
70715;SDS011;59053;50.832;12.882;2023-06-10T00:37:46;22.13;;;13.83;;
70715;SDS011;59053;50.832;12.882;2023-06-10T00:40:11;22.60;;;13.60;;
70715;SDS011;59053;50.832;12.882;2023-06-10T00:42:37;22.10;;;13.48;;
70715;SDS011;59053;50.832;12.882;2023-06-10T00:45:03;21.23;;;13.33;;
70715;SDS011;59053;50.832;12.882;2023-06-10T00:47:28;21.58;;;13.65;;
70715;SDS011;59053;50.832;12.882;2023-06-10T00:49:55;19.25;;;13.30;;
70715;SDS011;59053;50.832;12.882;2023-06-10T00:52:22;26.40;;;13.40;;
70715;SDS011;59053;50.832;12.882;2023-06-10T00:54:47;23.50;;;13.50;;
70715;SDS011;59053;50.832;12.882;2023-06-10T00:57:14;22.98;;;13.50;;
70715;SDS011;59053;50.832;12.882;2023-06-10T00:59:40;19.43;;;13.33;;
70715;SDS011;59053;50.832;12.882;2023-06-10T01:02:06;21.10;;;13.60;;
70715;SDS011;59053;50.832;12.882;2023-06-10T01:04:32;22.52;;;13.68;;
70715;SDS011;59053;50.832;12.882;2023-06-10T01:07:04;21.40;;;14.10;;
70715;SDS011;59053;50.832;12.882;2023-06-10T01:15:40;21.98;;;12.70;;
70715;SDS011;59053;50.832;12.882;2023-06-10T01:18:09;20.03;;;13.20;;
70715;SDS011;59053;50.832;12.882;2023-06-10T01:20:35;19.33;;;12.55;;
70715;SDS011;59053;50.832;12.882;2023-06-10T01:23:05;19.83;;;13.40;;
70715;SDS011;59053;50.832;12.882;2023-06-10T01:25:31;21.65;;;13.80;;
70715;SDS011;59053;50.832;12.882;2023-06-10T01:28:12;20.92;;;13.32;;
70715;SDS011;59053;50.832;12.882;2023-06-10T01:30:51;20.03;;;13.33;;
70715;SDS011;59053;50.832;12.882;2023-06-10T01:33:38;19.23;;;12.98;;
70715;SDS011;59053;50.832;12.882;2023-06-10T01:36:07;22.75;;;13.77;;
70715;SDS011;59053;50.832;12.882;2023-06-10T01:38:36;19.48;;;12.75;;
70715;SDS011;59053;50.832;12.882;2023-06-10T01:41:07;21.88;;;13.18;;
70715;SDS011;59053;50.832;12.882;2023-06-10T01:43:33;19.77;;;11.67;;
70715;SDS011;59053;50.832;12.882;2023-06-10T01:45:59;20.52;;;12.75;;
70715;SDS011;59053;50.832;12.882;2023-06-10T01:48:25;21.30;;;12.37;;
70715;SDS011;59053;50.832;12.882;2023-06-10T01:50:50;19.93;;;12.03;;
70715;SDS011;59053;50.832;12.882;2023-06-10T01:53:15;20.63;;;12.63;;
70715;SDS011;59053;50.832;12.882;2023-06-10T01:55:41;20.03;;;12.60;;
70715;SDS011;59053;50.832;12.882;2023-06-10T01:58:06;18.80;;;12.13;;
70715;SDS011;59053;50.832;12.882;2023-06-10T02:00:31;21.43;;;12.33;;
70715;SDS011;59053;50.832;12.882;2023-06-10T02:02:57;18.53;;;11.93;;
70715;SDS011;59053;50.832;12.882;2023-06-10T02:05:22;20.10;;;12.30;;
70715;SDS011;59053;50.832;12.882;2023-06-10T02:07:48;20.30;;;12.40;;
70715;SDS011;59053;50.832;12.882;2023-06-10T02:10:13;18.13;;;11.90;;
70715;SDS011;59053;50.832;12.882;2023-06-10T02:12:38;20.17;;;12.47;;
70715;SDS011;59053;50.832;12.882;2023-06-10T02:15:04;18.53;;;12.33;;
70715;SDS011;59053;50.832;12.882;2023-06-10T02:17:29;20.33;;;12.23;;
70715;SDS011;59053;50.832;12.882;2023-06-10T02:19:55;17.47;;;12.00;;
70715;SDS011;59053;50.832;12.882;2023-06-10T02:22:22;17.83;;;11.75;;
70715;SDS011;59053;50.832;12.882;2023-06-10T02:24:48;18.52;;;11.75;;
70715;SDS011;59053;50.832;12.882;2023-06-10T02:27:14;18.53;;;11.53;;
70715;SDS011;59053;50.832;12.882;2023-06-10T02:29:40;19.15;;;11.43;;
70715;SDS011;59053;50.832;12.882;2023-06-10T02:32:06;18.13;;;11.45;;
70715;SDS011;59053;50.832;12.882;2023-06-10T02:34:32;17.13;;;11.20;;
70715;SDS011;59053;50.832;12.882;2023-06-10T02:36:59;19.40;;;11.80;;
70715;SDS011;59053;50.832;12.882;2023-06-10T02:39:24;21.03;;;11.80;;
70715;SDS011;59053;50.832;12.882;2023-06-10T02:41:50;18.75;;;11.43;;
70715;SDS011;59053;50.832;12.882;2023-06-10T02:44:16;21.83;;;12.30;;
70715;SDS011;59053;50.832;12.882;2023-06-10T02:46:43;18.88;;;12.15;;
70715;SDS011;59053;50.832;12.882;2023-06-10T02:49:09;18.67;;;11.47;;
70715;SDS011;59053;50.832;12.882;2023-06-10T02:51:34;18.13;;;11.65;;
70715;SDS011;59053;50.832;12.882;2023-06-10T02:54:02;18.27;;;11.73;;
70715;SDS011;59053;50.832;12.882;2023-06-10T02:56:27;17.60;;;12.10;;
70715;SDS011;59053;50.832;12.882;2023-06-10T02:58:55;18.67;;;11.88;;
70715;SDS011;59053;50.832;12.882;2023-06-10T03:01:21;19.60;;;12.05;;
70715;SDS011;59053;50.832;12.882;2023-06-10T03:03:59;19.98;;;12.02;;
70715;SDS011;59053;50.832;12.882;2023-06-10T03:06:24;18.20;;;11.97;;
70715;SDS011;59053;50.832;12.882;2023-06-10T03:08:50;17.65;;;11.77;;
70715;SDS011;59053;50.832;12.882;2023-06-10T03:11:17;18.13;;;12.20;;
70715;SDS011;59053;50.832;12.882;2023-06-10T03:13:44;19.15;;;11.93;;
70715;SDS011;59053;50.832;12.882;2023-06-10T03:16:13;17.45;;;11.82;;
70715;SDS011;59053;50.832;12.882;2023-06-10T03:18:39;18.45;;;11.93;;
70715;SDS011;59053;50.832;12.882;2023-06-10T03:21:06;18.25;;;11.90;;
70715;SDS011;59053;50.832;12.882;2023-06-10T03:23:31;21.33;;;11.90;;
70715;SDS011;59053;50.832;12.882;2023-06-10T03:25:58;20.27;;;11.88;;
70715;SDS011;59053;50.832;12.882;2023-06-10T03:28:24;16.60;;;11.25;;
70715;SDS011;59053;50.832;12.882;2023-06-10T03:30:50;17.57;;;11.20;;
70715;SDS011;59053;50.832;12.882;2023-06-10T03:33:17;20.80;;;11.63;;
70715;SDS011;59053;50.832;12.882;2023-06-10T03:35:43;19.67;;;11.52;;
70715;SDS011;59053;50.832;12.882;2023-06-10T03:38:10;16.58;;;11.52;;
70715;SDS011;59053;50.832;12.882;2023-06-10T03:40:36;18.80;;;11.13;;
70715;SDS011;59053;50.832;12.882;2023-06-10T03:43:02;17.13;;;11.00;;
70715;SDS011;59053;50.832;12.882;2023-06-10T03:45:28;18.33;;;11.93;;
70715;SDS011;59053;50.832;12.882;2023-06-10T03:47:55;18.42;;;10.80;;
70715;SDS011;59053;50.832;12.882;2023-06-10T03:50:25;17.63;;;11.93;;
70715;SDS011;59053;50.832;12.882;2023-06-10T03:52:51;18.43;;;11.40;;
70715;SDS011;59053;50.832;12.882;2023-06-10T03:55:19;19.52;;;11.05;;
70715;SDS011;59053;50.832;12.882;2023-06-10T03:57:47;16.80;;;11.30;;
70715;SDS011;59053;50.832;12.882;2023-06-10T04:00:14;16.50;;;11.20;;
70715;SDS011;59053;50.832;12.882;2023-06-10T04:02:40;17.33;;;11.60;;
70715;SDS011;59053;50.832;12.882;2023-06-10T04:05:40;19.10;;;11.50;;
70715;SDS011;59053;50.832;12.882;2023-06-10T04:08:07;16.90;;;11.35;;
70715;SDS011;59053;50.832;12.882;2023-06-10T04:10:32;17.00;;;11.20;;
70715;SDS011;59053;50.832;12.882;2023-06-10T04:12:59;18.93;;;11.13;;
70715;SDS011;59053;50.832;12.882;2023-06-10T04:15:28;16.00;;;11.15;;
70715;SDS011;59053;50.832;12.882;2023-06-10T04:17:55;16.40;;;10.95;;
70715;SDS011;59053;50.832;12.882;2023-06-10T04:20:23;15.48;;;10.95;;
70715;SDS011;59053;50.832;12.882;2023-06-10T04:22:48;16.50;;;11.07;;
70715;SDS011;59053;50.832;12.882;2023-06-10T04:25:14;17.05;;;11.25;;
70715;SDS011;59053;50.832;12.882;2023-06-10T04:27:41;16.58;;;11.20;;
70715;SDS011;59053;50.832;12.882;2023-06-10T04:30:06;18.03;;;11.67;;
70715;SDS011;59053;50.832;12.882;2023-06-10T04:32:34;18.20;;;11.35;;
70715;SDS011;59053;50.832;12.882;2023-06-10T04:35:00;17.33;;;11.30;;
70715;SDS011;59053;50.832;12.882;2023-06-10T04:37:25;16.08;;;11.50;;
70715;SDS011;59053;50.832;12.882;2023-06-10T04:39:51;17.30;;;10.77;;
70715;SDS011;59053;50.832;12.882;2023-06-10T04:42:16;16.13;;;11.70;;
70715;SDS011;59053;50.832;12.882;2023-06-10T04:44:42;15.90;;;10.93;;
70715;SDS011;59053;50.832;12.882;2023-06-10T04:47:08;18.60;;;11.90;;
70715;SDS011;59053;50.832;12.882;2023-06-10T04:49:34;16.98;;;11.20;;
70715;SDS011;59053;50.832;12.882;2023-06-10T04:52:01;16.05;;;10.98;;
70715;SDS011;59053;50.832;12.882;2023-06-10T04:54:27;15.90;;;10.87;;
70715;SDS011;59053;50.832;12.882;2023-06-10T04:56:52;15.05;;;10.77;;
70715;SDS011;59053;50.832;12.882;2023-06-10T04:59:17;17.73;;;10.23;;
70715;SDS011;59053;50.832;12.882;2023-06-10T05:01:43;15.53;;;11.00;;
70715;SDS011;59053;50.832;12.882;2023-06-10T05:04:08;17.57;;;11.03;;
70715;SDS011;59053;50.832;12.882;2023-06-10T05:06:33;16.33;;;10.80;;
70715;SDS011;59053;50.832;12.882;2023-06-10T05:09:00;16.03;;;11.00;;
70715;SDS011;59053;50.832;12.882;2023-06-10T05:11:26;15.43;;;10.83;;
70715;SDS011;59053;50.832;12.882;2023-06-10T05:13:51;16.87;;;10.20;;
70715;SDS011;59053;50.832;12.882;2023-06-10T05:16:16;16.00;;;10.93;;
70715;SDS011;59053;50.832;12.882;2023-06-10T05:18:42;18.47;;;10.53;;
70715;SDS011;59053;50.832;12.882;2023-06-10T05:21:07;15.07;;;9.77;;
70715;SDS011;59053;50.832;12.882;2023-06-10T05:23:33;14.30;;;9.80;;
70715;SDS011;59053;50.832;12.882;2023-06-10T05:25:58;17.23;;;10.40;;
70715;SDS011;59053;50.832;12.882;2023-06-10T05:28:24;14.98;;;9.95;;
70715;SDS011;59053;50.832;12.882;2023-06-10T05:30:50;14.43;;;9.73;;
70715;SDS011;59053;50.832;12.882;2023-06-10T05:33:16;13.95;;;9.63;;
70715;SDS011;59053;50.832;12.882;2023-06-10T05:35:41;14.13;;;9.53;;
70715;SDS011;59053;50.832;12.882;2023-06-10T05:38:07;15.37;;;9.83;;
70715;SDS011;59053;50.832;12.882;2023-06-10T05:40:32;14.20;;;8.97;;
70715;SDS011;59053;50.832;12.882;2023-06-10T05:42:57;13.43;;;9.18;;
70715;SDS011;59053;50.832;12.882;2023-06-10T05:45:23;16.63;;;9.20;;
70715;SDS011;59053;50.832;12.882;2023-06-10T05:47:48;14.67;;;9.07;;
70715;SDS011;59053;50.832;12.882;2023-06-10T05:50:13;13.37;;;9.50;;
70715;SDS011;59053;50.832;12.882;2023-06-10T05:52:39;13.47;;;9.07;;
70715;SDS011;59053;50.832;12.882;2023-06-10T05:55:05;12.77;;;9.15;;
70715;SDS011;59053;50.832;12.882;2023-06-10T05:57:31;15.70;;;9.20;;
70715;SDS011;59053;50.832;12.882;2023-06-10T05:59:57;15.67;;;9.13;;
70715;SDS011;59053;50.832;12.882;2023-06-10T06:02:22;13.50;;;8.10;;
70715;SDS011;59053;50.832;12.882;2023-06-10T06:04:47;13.03;;;9.00;;
70715;SDS011;59053;50.832;12.882;2023-06-10T06:07:13;15.07;;;8.97;;
70715;SDS011;59053;50.832;12.882;2023-06-10T06:09:38;13.87;;;8.30;;
70715;SDS011;59053;50.832;12.882;2023-06-10T06:12:03;13.27;;;8.80;;
70715;SDS011;59053;50.832;12.882;2023-06-10T06:14:31;15.35;;;8.30;;
70715;SDS011;59053;50.832;12.882;2023-06-10T06:16:57;11.27;;;8.57;;
70715;SDS011;59053;50.832;12.882;2023-06-10T06:19:22;11.97;;;8.03;;
70715;SDS011;59053;50.832;12.882;2023-06-10T06:21:48;13.83;;;8.03;;
70715;SDS011;59053;50.832;12.882;2023-06-10T06:24:13;12.20;;;8.17;;
70715;SDS011;59053;50.832;12.882;2023-06-10T06:26:40;10.50;;;7.70;;
70715;SDS011;59053;50.832;12.882;2023-06-10T06:29:05;11.20;;;7.13;;
70715;SDS011;59053;50.832;12.882;2023-06-10T06:31:30;11.13;;;7.60;;
70715;SDS011;59053;50.832;12.882;2023-06-10T06:33:56;10.10;;;7.57;;
70715;SDS011;59053;50.832;12.882;2023-06-10T06:36:21;11.00;;;7.87;;
70715;SDS011;59053;50.832;12.882;2023-06-10T06:38:47;12.30;;;7.43;;
70715;SDS011;59053;50.832;12.882;2023-06-10T06:41:12;14.57;;;7.50;;
70715;SDS011;59053;50.832;12.882;2023-06-10T06:43:37;12.57;;;8.10;;
70715;SDS011;59053;50.832;12.882;2023-06-10T06:46:12;10.80;;;8.07;;
70715;SDS011;59053;50.832;12.882;2023-06-10T06:48:37;10.83;;;7.57;;
70715;SDS011;59053;50.832;12.882;2023-06-10T06:51:02;14.67;;;8.23;;
70715;SDS011;59053;50.832;12.882;2023-06-10T06:53:28;11.10;;;7.97;;
70715;SDS011;59053;50.832;12.882;2023-06-10T06:55:53;12.07;;;8.33;;
70715;SDS011;59053;50.832;12.882;2023-06-10T06:58:18;12.32;;;7.82;;
70715;SDS011;59053;50.832;12.882;2023-06-10T07:00:44;12.53;;;8.73;;
70715;SDS011;59053;50.832;12.882;2023-06-10T07:03:09;14.10;;;8.20;;
70715;SDS011;59053;50.832;12.882;2023-06-10T07:05:34;14.20;;;8.60;;
70715;SDS011;59053;50.832;12.882;2023-06-10T07:08:00;12.20;;;8.60;;
70715;SDS011;59053;50.832;12.882;2023-06-10T07:10:26;11.70;;;7.70;;
70715;SDS011;59053;50.832;12.882;2023-06-10T07:12:52;10.05;;;7.30;;
70715;SDS011;59053;50.832;12.882;2023-06-10T07:15:17;12.10;;;6.70;;
70715;SDS011;59053;50.832;12.882;2023-06-10T07:17:43;10.80;;;6.73;;
70715;SDS011;59053;50.832;12.882;2023-06-10T07:20:09;10.27;;;6.70;;
70715;SDS011;59053;50.832;12.882;2023-06-10T07:22:35;10.63;;;7.10;;
70715;SDS011;59053;50.832;12.882;2023-06-10T07:25:00;14.67;;;6.80;;
70715;SDS011;59053;50.832;12.882;2023-06-10T07:27:25;9.60;;;6.73;;
70715;SDS011;59053;50.832;12.882;2023-06-10T07:29:51;8.87;;;7.10;;
70715;SDS011;59053;50.832;12.882;2023-06-10T07:32:16;11.20;;;7.23;;
70715;SDS011;59053;50.832;12.882;2023-06-10T07:34:44;10.30;;;6.65;;
70715;SDS011;59053;50.832;12.882;2023-06-10T07:37:09;11.63;;;6.93;;
70715;SDS011;59053;50.832;12.882;2023-06-10T07:39:35;10.47;;;6.53;;
70715;SDS011;59053;50.832;12.882;2023-06-10T07:42:00;15.37;;;6.80;;
70715;SDS011;59053;50.832;12.882;2023-06-10T07:44:26;10.47;;;6.63;;
70715;SDS011;59053;50.832;12.882;2023-06-10T07:46:51;11.13;;;7.22;;
70715;SDS011;59053;50.832;12.882;2023-06-10T07:49:16;9.20;;;7.03;;
70715;SDS011;59053;50.832;12.882;2023-06-10T07:51:42;9.97;;;7.20;;
70715;SDS011;59053;50.832;12.882;2023-06-10T07:54:07;12.33;;;6.90;;
70715;SDS011;59053;50.832;12.882;2023-06-10T07:56:33;10.60;;;7.03;;
70715;SDS011;59053;50.832;12.882;2023-06-10T07:58:58;10.57;;;7.20;;
70715;SDS011;59053;50.832;12.882;2023-06-10T08:01:23;10.27;;;7.17;;
70715;SDS011;59053;50.832;12.882;2023-06-10T08:03:49;10.37;;;6.27;;
70715;SDS011;59053;50.832;12.882;2023-06-10T08:06:14;10.87;;;6.63;;
70715;SDS011;59053;50.832;12.882;2023-06-10T08:08:42;9.90;;;6.53;;
70715;SDS011;59053;50.832;12.882;2023-06-10T08:11:08;11.48;;;6.38;;
70715;SDS011;59053;50.832;12.882;2023-06-10T08:13:37;9.23;;;5.53;;
70715;SDS011;59053;50.832;12.882;2023-06-10T08:16:02;10.83;;;7.23;;
70715;SDS011;59053;50.832;12.882;2023-06-10T08:18:28;11.82;;;7.75;;
70715;SDS011;59053;50.832;12.882;2023-06-10T08:20:53;13.20;;;7.10;;
70715;SDS011;59053;50.832;12.882;2023-06-10T08:23:18;10.33;;;7.57;;
70715;SDS011;59053;50.832;12.882;2023-06-10T08:25:44;9.80;;;6.93;;
70715;SDS011;59053;50.832;12.882;2023-06-10T08:28:10;11.70;;;6.90;;
70715;SDS011;59053;50.832;12.882;2023-06-10T08:30:35;9.07;;;6.40;;
70715;SDS011;59053;50.832;12.882;2023-06-10T08:33:00;11.00;;;7.37;;
70715;SDS011;59053;50.832;12.882;2023-06-10T08:35:26;10.80;;;6.97;;
70715;SDS011;59053;50.832;12.882;2023-06-10T08:37:51;12.47;;;7.80;;
70715;SDS011;59053;50.832;12.882;2023-06-10T08:40:16;11.97;;;7.43;;
70715;SDS011;59053;50.832;12.882;2023-06-10T08:45:18;11.23;;;7.50;;
70715;SDS011;59053;50.832;12.882;2023-06-10T08:47:48;11.27;;;7.38;;
70715;SDS011;59053;50.832;12.882;2023-06-10T08:50:17;13.33;;;6.97;;
70715;SDS011;59053;50.832;12.882;2023-06-10T08:52:43;9.88;;;7.10;;
70715;SDS011;59053;50.832;12.882;2023-06-10T08:55:10;14.02;;;7.90;;
70715;SDS011;59053;50.832;12.882;2023-06-10T08:57:37;11.82;;;7.30;;
70715;SDS011;59053;50.832;12.882;2023-06-10T09:00:02;9.50;;;7.27;;
70715;SDS011;59053;50.832;12.882;2023-06-10T09:02:28;11.45;;;7.82;;
70715;SDS011;59053;50.832;12.882;2023-06-10T09:04:56;11.37;;;7.73;;
70715;SDS011;59053;50.832;12.882;2023-06-10T09:07:21;12.15;;;7.70;;
70715;SDS011;59053;50.832;12.882;2023-06-10T09:09:48;12.75;;;7.50;;
70715;SDS011;59053;50.832;12.882;2023-06-10T09:12:14;9.98;;;5.53;;
70715;SDS011;59053;50.832;12.882;2023-06-10T09:14:39;9.87;;;7.73;;
70715;SDS011;59053;50.832;12.882;2023-06-10T09:17:05;11.75;;;6.30;;
70715;SDS011;59053;50.832;12.882;2023-06-10T09:19:32;10.40;;;7.50;;
70715;SDS011;59053;50.832;12.882;2023-06-10T09:21:57;12.93;;;7.45;;
70715;SDS011;59053;50.832;12.882;2023-06-10T09:24:23;10.07;;;6.77;;
70715;SDS011;59053;50.832;12.882;2023-06-10T09:26:49;9.88;;;6.88;;
70715;SDS011;59053;50.832;12.882;2023-06-10T09:29:16;12.82;;;7.10;;
70715;SDS011;59053;50.832;12.882;2023-06-10T09:31:41;9.52;;;6.78;;
70715;SDS011;59053;50.832;12.882;2023-06-10T09:34:09;10.77;;;6.23;;
70715;SDS011;59053;50.832;12.882;2023-06-10T09:36:35;9.98;;;6.90;;
70715;SDS011;59053;50.832;12.882;2023-06-10T09:39:01;10.32;;;6.97;;
70715;SDS011;59053;50.832;12.882;2023-06-10T09:41:39;7.97;;;4.70;;
70715;SDS011;59053;50.832;12.882;2023-06-10T09:44:15;8.27;;;5.20;;
70715;SDS011;59053;50.832;12.882;2023-06-10T09:46:42;9.32;;;5.70;;
70715;SDS011;59053;50.832;12.882;2023-06-10T09:49:10;9.00;;;5.88;;
70715;SDS011;59053;50.832;12.882;2023-06-10T09:51:35;7.83;;;5.00;;
70715;SDS011;59053;50.832;12.882;2023-06-10T09:54:04;7.47;;;4.33;;
70715;SDS011;59053;50.832;12.882;2023-06-10T09:56:33;8.35;;;4.95;;
70715;SDS011;59053;50.832;12.882;2023-06-10T09:58:59;6.85;;;4.22;;
70715;SDS011;59053;50.832;12.882;2023-06-10T10:01:25;6.97;;;4.47;;
70715;SDS011;59053;50.832;12.882;2023-06-10T10:03:50;6.77;;;3.70;;
70715;SDS011;59053;50.832;12.882;2023-06-10T10:06:16;7.93;;;5.00;;
70715;SDS011;59053;50.832;12.882;2023-06-10T10:08:43;9.65;;;5.60;;
70715;SDS011;59053;50.832;12.882;2023-06-10T10:11:09;9.30;;;5.10;;
70715;SDS011;59053;50.832;12.882;2023-06-10T10:13:35;8.10;;;3.92;;
70715;SDS011;59053;50.832;12.882;2023-06-10T10:16:02;10.10;;;5.30;;
70715;SDS011;59053;50.832;12.882;2023-06-10T10:18:31;8.85;;;5.60;;
70715;SDS011;59053;50.832;12.882;2023-06-10T10:20:57;9.43;;;5.40;;
70715;SDS011;59053;50.832;12.882;2023-06-10T10:23:31;10.65;;;5.82;;
70715;SDS011;59053;50.832;12.882;2023-06-10T10:26:00;8.80;;;6.10;;
70715;SDS011;59053;50.832;12.882;2023-06-10T10:28:27;9.93;;;6.60;;
70715;SDS011;59053;50.832;12.882;2023-06-10T10:31:06;11.20;;;6.60;;
70715;SDS011;59053;50.832;12.882;2023-06-10T10:36:22;9.98;;;6.60;;
70715;SDS011;59053;50.832;12.882;2023-06-10T10:38:48;9.50;;;5.93;;
70715;SDS011;59053;50.832;12.882;2023-06-10T10:41:16;9.52;;;6.45;;
70715;SDS011;59053;50.832;12.882;2023-06-10T10:43:43;8.35;;;6.35;;
70715;SDS011;59053;50.832;12.882;2023-06-10T10:46:13;10.32;;;6.03;;
70715;SDS011;59053;50.832;12.882;2023-06-10T10:48:40;11.03;;;6.27;;
70715;SDS011;59053;50.832;12.882;2023-06-10T10:51:08;7.50;;;5.78;;
70715;SDS011;59053;50.832;12.882;2023-06-10T10:53:34;8.70;;;6.22;;
70715;SDS011;59053;50.832;12.882;2023-06-10T10:56:06;10.23;;;6.40;;
70715;SDS011;59053;50.832;12.882;2023-06-10T10:58:38;9.63;;;6.57;;
70715;SDS011;59053;50.832;12.882;2023-06-10T11:01:10;11.05;;;6.43;;
70715;SDS011;59053;50.832;12.882;2023-06-10T11:03:41;10.10;;;6.13;;
70715;SDS011;59053;50.832;12.882;2023-06-10T11:06:11;11.82;;;6.18;;
70715;SDS011;59053;50.832;12.882;2023-06-10T11:11:17;14.50;;;5.90;;
70715;SDS011;59053;50.832;12.882;2023-06-10T11:16:27;9.45;;;6.45;;
70715;SDS011;59053;50.832;12.882;2023-06-10T11:18:53;8.77;;;5.55;;
70715;SDS011;59053;50.832;12.882;2023-06-10T11:21:19;11.57;;;6.03;;
70715;SDS011;59053;50.832;12.882;2023-06-10T11:23:45;9.82;;;6.32;;
70715;SDS011;59053;50.832;12.882;2023-06-10T11:26:20;9.07;;;6.30;;
70715;SDS011;59053;50.832;12.882;2023-06-10T11:31:22;9.83;;;6.33;;
70715;SDS011;59053;50.832;12.882;2023-06-10T11:33:58;9.63;;;6.20;;
70715;SDS011;59053;50.832;12.882;2023-06-10T11:36:31;8.30;;;5.40;;
70715;SDS011;59053;50.832;12.882;2023-06-10T11:38:59;9.75;;;5.70;;
70715;SDS011;59053;50.832;12.882;2023-06-10T11:41:27;8.88;;;5.43;;
70715;SDS011;59053;50.832;12.882;2023-06-10T11:43:54;7.43;;;5.70;;
70715;SDS011;59053;50.832;12.882;2023-06-10T11:46:22;8.70;;;5.47;;
70715;SDS011;59053;50.832;12.882;2023-06-10T11:48:51;6.95;;;5.30;;
70715;SDS011;59053;50.832;12.882;2023-06-10T11:51:17;8.52;;;5.63;;
70715;SDS011;59053;50.832;12.882;2023-06-10T11:53:49;8.13;;;5.10;;
70715;SDS011;59053;50.832;12.882;2023-06-10T11:56:21;10.07;;;6.00;;
70715;SDS011;59053;50.832;12.882;2023-06-10T11:58:54;10.98;;;5.90;;
70715;SDS011;59053;50.832;12.882;2023-06-10T12:01:22;9.67;;;5.43;;
70715;SDS011;59053;50.832;12.882;2023-06-10T12:03:58;12.15;;;5.40;;
70715;SDS011;59053;50.832;12.882;2023-06-10T12:06:37;7.18;;;5.60;;
70715;SDS011;59053;50.832;12.882;2023-06-10T12:09:22;8.05;;;5.85;;
70715;SDS011;59053;50.832;12.882;2023-06-10T12:11:50;9.50;;;5.40;;
70715;SDS011;59053;50.832;12.882;2023-06-10T12:14:49;7.00;;;4.90;;
70715;SDS011;59053;50.832;12.882;2023-06-10T12:17:23;8.07;;;5.22;;
70715;SDS011;59053;50.832;12.882;2023-06-10T12:20:47;9.50;;;5.50;;
70715;SDS011;59053;50.832;12.882;2023-06-10T12:22:51;8.40;;;5.30;;
70715;SDS011;59053;50.832;12.882;2023-06-10T12:25:16;6.20;;;4.47;;
70715;SDS011;59053;50.832;12.882;2023-06-10T12:27:51;7.10;;;5.00;;
70715;SDS011;59053;50.832;12.882;2023-06-10T12:30:21;6.03;;;4.50;;
70715;SDS011;59053;50.832;12.882;2023-06-10T12:32:47;9.02;;;5.45;;
70715;SDS011;59053;50.832;12.882;2023-06-10T12:35:20;10.03;;;5.40;;
70715;SDS011;59053;50.832;12.882;2023-06-10T12:37:57;8.13;;;4.40;;
70715;SDS011;59053;50.832;12.882;2023-06-10T12:40:26;8.15;;;5.47;;
70715;SDS011;59053;50.832;12.882;2023-06-10T12:42:56;8.77;;;4.90;;
70715;SDS011;59053;50.832;12.882;2023-06-10T12:45:28;7.47;;;5.30;;
70715;SDS011;59053;50.832;12.882;2023-06-10T12:48:04;8.18;;;5.60;;
70715;SDS011;59053;50.832;12.882;2023-06-10T12:50:37;8.32;;;5.18;;
70715;SDS011;59053;50.832;12.882;2023-06-10T12:53:04;10.75;;;5.57;;
70715;SDS011;59053;50.832;12.882;2023-06-10T12:55:29;7.90;;;5.50;;
70715;SDS011;59053;50.832;12.882;2023-06-10T12:57:55;9.73;;;5.40;;
70715;SDS011;59053;50.832;12.882;2023-06-10T13:00:22;8.37;;;5.63;;
70715;SDS011;59053;50.832;12.882;2023-06-10T13:02:50;7.07;;;5.28;;
70715;SDS011;59053;50.832;12.882;2023-06-10T13:05:16;6.95;;;4.88;;
70715;SDS011;59053;50.832;12.882;2023-06-10T13:07:43;9.23;;;5.97;;
70715;SDS011;59053;50.832;12.882;2023-06-10T13:10:08;7.20;;;5.60;;
70715;SDS011;59053;50.832;12.882;2023-06-10T13:12:34;8.40;;;5.45;;
70715;SDS011;59053;50.832;12.882;2023-06-10T13:15:01;7.43;;;5.32;;
70715;SDS011;59053;50.832;12.882;2023-06-10T13:17:27;6.27;;;4.83;;
70715;SDS011;59053;50.832;12.882;2023-06-10T13:19:52;6.35;;;4.20;;
70715;SDS011;59053;50.832;12.882;2023-06-10T13:22:18;6.87;;;4.90;;
70715;SDS011;59053;50.832;12.882;2023-06-10T13:24:45;6.90;;;5.03;;
70715;SDS011;59053;50.832;12.882;2023-06-10T13:27:10;8.40;;;5.03;;
70715;SDS011;59053;50.832;12.882;2023-06-10T13:29:36;8.37;;;5.23;;
70715;SDS011;59053;50.832;12.882;2023-06-10T13:32:01;8.53;;;5.10;;
70715;SDS011;59053;50.832;12.882;2023-06-10T13:34:26;7.70;;;5.47;;
70715;SDS011;59053;50.832;12.882;2023-06-10T13:36:53;8.55;;;5.40;;
70715;SDS011;59053;50.832;12.882;2023-06-10T13:39:18;7.40;;;5.10;;
70715;SDS011;59053;50.832;12.882;2023-06-10T13:41:44;6.50;;;4.60;;
70715;SDS011;59053;50.832;12.882;2023-06-10T13:44:09;7.93;;;4.60;;
70715;SDS011;59053;50.832;12.882;2023-06-10T13:46:34;7.40;;;4.70;;
70715;SDS011;59053;50.832;12.882;2023-06-10T13:49:00;7.93;;;5.00;;
70715;SDS011;59053;50.832;12.882;2023-06-10T13:51:25;8.60;;;5.27;;
70715;SDS011;59053;50.832;12.882;2023-06-10T13:53:51;10.35;;;5.03;;
70715;SDS011;59053;50.832;12.882;2023-06-10T13:56:17;6.97;;;4.90;;
70715;SDS011;59053;50.832;12.882;2023-06-10T13:58:42;8.55;;;4.90;;
70715;SDS011;59053;50.832;12.882;2023-06-10T14:01:08;8.10;;;5.10;;
70715;SDS011;59053;50.832;12.882;2023-06-10T14:03:33;8.33;;;5.20;;
70715;SDS011;59053;50.832;12.882;2023-06-10T14:05:58;6.30;;;5.00;;
70715;SDS011;59053;50.832;12.882;2023-06-10T14:08:24;6.50;;;4.93;;
70715;SDS011;59053;50.832;12.882;2023-06-10T14:10:49;6.93;;;4.37;;
70715;SDS011;59053;50.832;12.882;2023-06-10T14:13:16;6.32;;;5.03;;
70715;SDS011;59053;50.832;12.882;2023-06-10T14:15:42;6.10;;;4.45;;
70715;SDS011;59053;50.832;12.882;2023-06-10T14:18:07;8.37;;;4.60;;
70715;SDS011;59053;50.832;12.882;2023-06-10T14:20:33;5.87;;;4.50;;
70715;SDS011;59053;50.832;12.882;2023-06-10T14:22:58;7.03;;;4.93;;
70715;SDS011;59053;50.832;12.882;2023-06-10T14:25:24;6.85;;;4.82;;
70715;SDS011;59053;50.832;12.882;2023-06-10T14:27:49;8.60;;;5.10;;
70715;SDS011;59053;50.832;12.882;2023-06-10T14:30:15;8.80;;;4.47;;
70715;SDS011;59053;50.832;12.882;2023-06-10T14:32:40;8.00;;;4.87;;
70715;SDS011;59053;50.832;12.882;2023-06-10T14:35:06;6.80;;;5.27;;
70715;SDS011;59053;50.832;12.882;2023-06-10T14:37:31;7.15;;;5.03;;
70715;SDS011;59053;50.832;12.882;2023-06-10T14:39:57;6.27;;;5.00;;